Big Sur, California
Current Conditions -  °F | °C
As of 3:54 PM on Friday 28 Nov 2014 (Local Time) from KMRY Reporting Station
Clear Clear  
Wind Chill: 59°   Ceiling: Unl
Heat Index: 59°   Visibility: 10mi
Dew Point: 51°   Wind: 6mph
Humidity: 75%   Direction: 300°WNW
Pressure: 29.93"   Gusts: NA
Location:  36.27°N, 121.81°W
Report Text: KMRY 282354Z 30005KT 10SM CLR 15/11 A2993 RMK AO2 SLP147 T01500106 10161 20133 56013
Loading
Personal Weather Stations






























Interactive Weather Map New forecast layout! Learn more

10-Day Weather Forecast

Advertisements
Track Severe Weather on mobile